createdAt,value
2019-05-12T00:01:54.002Z,65.93
2019-05-12T00:06:58.530Z,68.53
2019-05-12T00:12:01.813Z,67.67
2019-05-12T00:17:05.157Z,66.28
2019-05-12T00:22:08.242Z,65.61
2019-05-12T00:27:14.946Z,66.65
2019-05-12T00:32:17.945Z,69.60
2019-05-12T00:37:21.236Z,69.87
2019-05-12T00:42:24.204Z,70.43
2019-05-12T00:47:28.024Z,70.12
2019-05-12T00:52:31.142Z,71.64
2019-05-12T00:57:34.316Z,71.37
2019-05-12T01:02:37.972Z,70.15
2019-05-12T01:07:41.136Z,72.96
2019-05-12T01:12:44.255Z,73.31
2019-05-12T01:17:47.773Z,74.30
2019-05-12T01:22:51.023Z,75.28
2019-05-12T01:27:53.950Z,73.87
2019-05-12T01:32:58.106Z,73.18
2019-05-12T01:38:01.624Z,73.88
2019-05-12T01:43:04.784Z,72.38
2019-05-12T01:48:08.981Z,74.61
2019-05-12T01:53:12.978Z,71.82
2019-05-12T01:58:19.047Z,72.86
2019-05-12T02:03:21.102Z,72.90
2019-05-12T02:08:33.069Z,71.64
2019-05-12T02:13:38.014Z,71.36
2019-05-12T02:18:41.005Z,72.05
2019-05-12T02:23:44.038Z,72.38
2019-05-12T02:28:48.074Z,71.90
2019-05-12T02:33:51.230Z,71.98
2019-05-12T02:38:55.951Z,71.83
2019-05-12T02:43:59.174Z,72.55
2019-05-12T02:49:04.875Z,73.19
2019-05-12T02:54:07.512Z,73.04
2019-05-12T02:59:11.699Z,74.25
2019-05-12T03:04:17.234Z,74.59
2019-05-12T03:09:24.343Z,74.80
2019-05-12T03:14:27.038Z,74.19
2019-05-12T03:19:30.007Z,73.74
2019-05-12T03:24:34.208Z,74.10
2019-05-12T03:29:37.363Z,75.46
2019-05-12T03:34:40.822Z,75.73
2019-05-12T03:39:44.734Z,77.41
2019-05-12T03:44:47.972Z,78.10
2019-05-12T03:49:54.234Z,79.91
2019-05-12T03:54:58.095Z,80.49
2019-05-12T04:00:01.052Z,76.07
2019-05-12T04:05:05.622Z,76.60
2019-05-12T04:10:09.244Z,77.11
2019-05-12T04:15:15.197Z,76.03
2019-05-12T04:20:17.606Z,75.71
2019-05-12T04:25:20.546Z,75.77
2019-05-12T04:30:25.179Z,75.56
2019-05-12T04:35:28.495Z,75.78
2019-05-12T04:40:31.553Z,75.22
2019-05-12T04:45:35.139Z,74.63
2019-05-12T04:50:38.400Z,73.99
2019-05-12T04:55:44.229Z,74.77
2019-05-12T05:00:46.544Z,74.52
2019-05-12T05:05:49.635Z,74.67
2019-05-12T05:10:54.775Z,74.41
2019-05-12T05:15:57.542Z,76.28
2019-05-12T05:21:00.466Z,77.43
2019-05-12T05:26:03.455Z,75.83
2019-05-12T05:31:06.483Z,75.18
2019-05-12T05:36:15.137Z,75.06
2019-05-12T05:41:14.343Z,74.61
2019-05-12T05:46:17.472Z,73.25
2019-05-12T05:51:20.626Z,72.73
2019-05-12T05:56:38.389Z,72.14
2019-05-12T06:01:28.494Z,73.45
2019-05-12T06:06:31.554Z,72.05
2019-05-12T06:11:36.471Z,71.62
2019-05-12T06:16:39.480Z,71.63
2019-05-12T06:21:43.990Z,70.98
2019-05-12T06:26:57.662Z,70.79
2019-05-12T06:31:54.248Z,70.11
2019-05-12T06:37:03.049Z,68.32
2019-05-12T06:42:12.362Z,67.41
2019-05-12T06:47:08.452Z,66.57
2019-05-12T06:52:11.589Z,64.67
2019-05-12T06:57:24.045Z,62.42
2019-05-12T07:02:19.441Z,62.25
2019-05-12T07:07:25.554Z,62.01
2019-05-12T07:12:33.562Z,61.30
2019-05-12T07:17:49.239Z,61.78
2019-05-12T07:22:48.497Z,61.35
2019-05-12T07:27:58.411Z,61.16
2019-05-12T07:33:01.377Z,61.36
2019-05-12T07:38:05.205Z,62.57
2019-05-12T07:43:16.275Z,62.53
2019-05-12T07:48:16.051Z,61.99
2019-05-12T07:53:19.173Z,61.07
2019-05-12T07:58:23.986Z,59.67
2019-05-12T08:03:27.087Z,58.96
2019-05-12T08:08:33.850Z,57.97
2019-05-12T08:13:37.821Z,56.98
2019-05-12T08:18:41.123Z,58.14
2019-05-12T08:23:44.691Z,57.59
2019-05-12T08:28:47.723Z,59.19
2019-05-12T08:33:50.705Z,58.71
2019-05-12T08:38:53.819Z,57.67
2019-05-12T08:43:58.469Z,56.45
2019-05-12T08:49:03.017Z,57.24
2019-05-12T08:54:08.106Z,55.04
2019-05-12T08:59:17.571Z,57.99
2019-05-12T09:04:18.375Z,60.28
2019-05-12T09:09:23.255Z,60.95
2019-05-12T09:14:26.649Z,61.63
2019-05-12T09:19:29.615Z,63.43
2019-05-12T09:24:33.755Z,61.40
2019-05-12T09:29:37.084Z,61.82
2019-05-12T09:34:46.882Z,61.06
2019-05-12T09:39:47.332Z,60.28
2019-05-12T09:44:50.390Z,61.20
2019-05-12T09:49:53.618Z,59.58
2019-05-12T09:54:56.706Z,57.63
2019-05-12T09:59:59.806Z,57.66
2019-05-12T10:05:03.917Z,56.53
2019-05-12T10:10:07.724Z,54.44
2019-05-12T10:15:13.490Z,56.04
2019-05-12T10:20:16.899Z,56.37
2019-05-12T10:25:23.198Z,54.51
2019-05-12T10:30:25.245Z,57.96
2019-05-12T10:35:28.467Z,57.65
2019-05-12T10:40:33.621Z,58.92
2019-05-12T10:45:36.568Z,59.01
2019-05-12T10:50:39.795Z,58.94
2019-05-12T10:55:44.052Z,57.90
2019-05-12T11:00:47.510Z,59.06
2019-05-12T11:05:56.673Z,57.66
2019-05-12T11:11:01.208Z,56.58
2019-05-12T11:16:00.945Z,56.57
2019-05-12T11:21:04.001Z,55.44
2019-05-12T11:26:07.036Z,55.34
2019-05-12T11:31:10.454Z,55.85
2019-05-12T11:36:13.641Z,58.57
2019-05-12T11:41:20.282Z,60.13
2019-05-12T11:46:23.645Z,59.61
2019-05-12T11:51:30.253Z,63.11
2019-05-12T11:56:33.644Z,62.84
2019-05-12T12:01:39.631Z,64.57
2019-05-12T12:06:43.703Z,67.38
2019-05-12T12:11:46.624Z,67.63
2019-05-12T12:16:50.483Z,67.47
2019-05-12T12:21:54.580Z,68.33
2019-05-12T12:26:57.729Z,67.11
2019-05-12T12:32:00.679Z,65.51
2019-05-12T12:37:03.672Z,68.49
2019-05-12T12:42:06.778Z,68.27
2019-05-12T12:47:09.728Z,69.95
2019-05-12T12:52:13.745Z,70.58
2019-05-12T12:57:19.129Z,72.35
2019-05-12T13:02:24.503Z,73.58
2019-05-12T13:07:27.258Z,74.13
2019-05-12T13:12:33.855Z,74.92
2019-05-12T13:17:41.547Z,75.67
2019-05-12T13:22:40.216Z,75.23
2019-05-12T13:27:43.196Z,76.12
2019-05-12T13:32:46.234Z,76.61
2019-05-12T13:37:50.410Z,76.98
2019-05-12T13:42:54.552Z,77.42
2019-05-12T13:47:57.620Z,78.00
2019-05-12T13:53:01.290Z,77.67
2019-05-12T13:58:05.630Z,77.95
2019-05-12T14:03:09.820Z,79.40
2019-05-12T14:08:14.677Z,80.27
2019-05-12T14:13:18.070Z,80.85
2019-05-12T14:18:21.135Z,82.27
2019-05-12T14:23:24.124Z,84.12
2019-05-12T14:28:27.514Z,88.14
2019-05-12T14:33:37.461Z,88.63
2019-05-12T14:38:36.031Z,90.58
2019-05-12T14:43:39.399Z,89.79
2019-05-12T14:48:48.418Z,91.47
2019-05-12T14:53:48.120Z,92.39
2019-05-12T14:58:56.453Z,92.88
2019-05-12T15:03:56.371Z,93.79
2019-05-12T15:08:59.443Z,95.12
2019-05-12T15:14:03.170Z,95.29
2019-05-12T15:19:09.438Z,95.91
2019-05-12T15:24:15.508Z,95.78
2019-05-12T15:29:19.719Z,95.81
2019-05-12T15:34:23.613Z,95.87
2019-05-12T15:39:26.635Z,96.36
2019-05-12T15:44:32.320Z,95.71
2019-05-12T15:49:34.522Z,95.61
2019-05-12T15:54:45.846Z,95.30
2019-05-12T15:59:43.499Z,95.30
2019-05-12T16:04:48.611Z,95.58
2019-05-12T16:09:51.680Z,96.20
2019-05-12T16:14:54.745Z,96.37
2019-05-12T16:19:57.713Z,96.52
2019-05-12T16:25:00.753Z,96.45
2019-05-12T16:30:04.847Z,96.46
2019-05-12T16:35:07.955Z,96.60
2019-05-12T16:40:13.416Z,96.73
2019-05-12T16:45:15.998Z,96.72
2019-05-12T16:50:24.852Z,97.00
2019-05-12T16:55:24.409Z,96.89
2019-05-12T17:00:30.518Z,97.03
2019-05-12T17:05:33.556Z,97.15
2019-05-12T17:10:36.785Z,97.26
2019-05-12T17:15:48.865Z,97.17
2019-05-12T17:20:50.916Z,97.32
2019-05-12T17:25:54.021Z,97.29
2019-05-12T17:30:57.076Z,97.53
2019-05-12T17:36:03.127Z,97.81
2019-05-12T17:41:05.464Z,97.95
2019-05-12T17:46:11.434Z,98.04
2019-05-12T17:51:13.787Z,98.10
2019-05-12T17:56:16.963Z,98.12
2019-05-12T18:01:22.998Z,98.08
2019-05-12T18:06:26.952Z,98.01
2019-05-12T18:11:30.160Z,98.18
2019-05-12T18:16:33.951Z,98.15
2019-05-12T18:21:37.077Z,97.79
2019-05-12T18:26:40.246Z,97.34
2019-05-12T18:31:43.710Z,96.60
2019-05-12T18:36:49.021Z,96.56
2019-05-12T18:41:54.152Z,96.67
2019-05-12T18:46:57.069Z,96.40
2019-05-12T18:52:00.102Z,96.48
2019-05-12T18:57:07.224Z,96.61
2019-05-12T19:02:08.428Z,96.90
2019-05-12T19:07:11.854Z,96.81
2019-05-12T19:12:20.846Z,96.93
2019-05-12T19:17:20.903Z,97.22
2019-05-12T19:22:24.344Z,97.25
2019-05-12T19:27:27.513Z,97.04
2019-05-12T19:32:30.564Z,96.72
2019-05-12T19:37:33.969Z,96.28
2019-05-12T19:42:37.085Z,95.25
2019-05-12T19:47:40.250Z,95.23
2019-05-12T19:52:43.608Z,95.02
2019-05-12T19:57:49.960Z,95.35
2019-05-12T20:02:53.744Z,95.16
2019-05-12T20:07:56.925Z,94.89
2019-05-12T20:12:59.924Z,94.47
2019-05-12T20:18:04.273Z,94.44
2019-05-12T20:23:07.529Z,94.12
2019-05-12T20:28:11.574Z,94.21
2019-05-12T20:33:15.454Z,93.78
2019-05-12T20:38:18.454Z,93.95
2019-05-12T20:43:23.999Z,93.67
2019-05-12T20:48:30.988Z,93.82
2019-05-12T20:53:33.745Z,93.58
2019-05-12T20:58:43.053Z,93.07
2019-05-12T21:03:46.264Z,92.95
2019-05-12T21:08:53.138Z,93.62
2019-05-12T21:13:51.079Z,93.11
2019-05-12T21:19:05.903Z,93.31
2019-05-12T21:23:59.582Z,93.54
2019-05-12T21:29:04.744Z,93.65
2019-05-12T21:34:15.060Z,93.68
2019-05-12T21:39:13.949Z,93.52
2019-05-12T21:44:17.285Z,93.35
2019-05-12T21:49:20.344Z,92.85
2019-05-12T21:54:24.222Z,93.22
2019-05-12T21:59:28.915Z,92.67
2019-05-12T22:04:40.987Z,93.19
2019-05-12T22:09:41.752Z,93.46
2019-05-12T22:14:43.706Z,93.87
2019-05-12T22:19:47.435Z,94.39
2019-05-12T22:24:50.439Z,95.07
2019-05-12T22:29:53.399Z,95.57
2019-05-12T22:34:56.529Z,96.07
2019-05-12T22:39:59.597Z,96.52
2019-05-12T22:45:05.815Z,96.33
2019-05-12T22:50:08.626Z,95.96
2019-05-12T22:55:14.007Z,96.17
2019-05-12T23:00:19.220Z,96.33
2019-05-12T23:05:24.186Z,96.28
2019-05-12T23:10:27.396Z,95.84
2019-05-12T23:15:30.462Z,95.98
2019-05-12T23:20:35.676Z,96.23
2019-05-12T23:25:38.613Z,95.99
2019-05-12T23:30:43.925Z,96.05
2019-05-12T23:35:46.563Z,96.10
2019-05-12T23:40:49.586Z,95.66
2019-05-12T23:45:53.358Z,95.55
2019-05-12T23:50:56.598Z,95.47
2019-05-12T23:55:59.593Z,95.07
